Time;durP1;ratioP1;P1;durP2;ratioP2;P2;SDS_P1;SDS_P2;PMS_P1;PMS_P2;Temp;Humidity;BMP_temperature;BMP_pressure;BME280_temperature;BME280_humidity;BME280_pressure;Samples;Min_cycle;Max_cycle;Signal;HPM_P1;HPM_P2
2023/01/08 00:01:12;;;;;;;84.55;45.48;;;;;;;-0.34;77.42;97275.96;1683459;83;25687;-72
2023/01/08 00:03:40;;;;;;;85.87;46.30;;;;;;;-0.35;77.49;97275.61;1681150;84;25478;-72
2023/01/08 00:06:11;;;;;;;76.60;42.75;;;;;;;-0.36;77.48;97268.64;1702718;83;27583;-74
2023/01/08 00:08:38;;;;;;;80.42;42.70;;;;;;;-0.39;77.39;97258.34;1704255;83;25743;-72
2023/01/08 00:11:05;;;;;;;86.35;42.58;;;;;;;-0.40;77.40;97260.16;1700616;83;25764;-72
2023/01/08 00:13:32;;;;;;;78.60;42.17;;;;;;;-0.43;77.44;97251.66;1742809;78;25819;-72
2023/01/08 00:16:06;;;;;;;74.20;40.28;;;;;;;-0.43;77.51;97247.67;1791736;78;25692;-72
2023/01/08 00:18:33;;;;;;;80.38;42.17;;;;;;;-0.43;77.50;97253.81;1777514;79;27414;-73
2023/01/08 00:21:01;;;;;;;83.47;41.33;;;;;;;-0.47;77.40;97249.78;1793930;79;25832;-72
2023/01/08 00:23:29;;;;;;;76.05;42.38;;;;;;;-0.51;77.44;97245.77;1793687;79;25875;-75
2023/01/08 00:25:56;;;;;;;80.55;43.35;;;;;;;-0.52;77.50;97241.45;1793900;79;26485;-75
2023/01/08 00:28:23;;;;;;;89.20;42.38;;;;;;;-0.53;77.51;97247.73;1811134;78;25899;-72
2023/01/08 00:30:49;;;;;;;94.13;44.30;;;;;;;-0.55;77.46;97249.69;1811212;78;27411;-72
2023/01/08 00:33:16;;;;;;;91.42;43.70;;;;;;;-0.58;77.59;97244.66;1811281;78;25824;-72
2023/01/08 00:35:42;;;;;;;106.43;45.70;;;;;;;-0.58;77.73;97243.83;1811445;78;25705;-72
2023/01/08 00:38:09;;;;;;;96.53;44.85;;;;;;;-0.59;77.76;97240.83;1808208;79;26187;-75
2023/01/08 00:40:37;;;;;;;88.00;43.92;;;;;;;-0.63;77.84;97245.61;1805287;78;25590;-74
2023/01/08 00:43:04;;;;;;;87.10;41.73;;;;;;;-0.63;77.86;97240.31;1804906;78;27419;-73
2023/01/08 00:45:31;;;;;;;90.90;42.40;;;;;;;-0.63;77.87;97242.96;1805001;78;25697;-72
2023/01/08 00:47:58;;;;;;;88.17;43.78;;;;;;;-0.65;77.86;97233.48;1805226;78;25731;-72
2023/01/08 00:50:25;;;;;;;78.78;39.65;;;;;;;-0.66;77.78;97230.48;1805184;78;25798;-74
2023/01/08 00:52:52;;;;;;;75.12;39.42;;;;;;;-0.74;77.76;97224.10;1805189;78;26184;-72
2023/01/08 00:55:19;;;;;;;80.10;39.13;;;;;;;-0.74;77.82;97232.05;1805141;78;27354;-72
2023/01/08 00:57:46;;;;;;;69.70;35.45;;;;;;;-0.75;77.75;97229.55;1805074;79;25740;-71
2023/01/08 01:00:15;;;;;;;61.77;32.63;;;;;;;-0.79;77.76;97233.45;1805075;79;25324;-73
2023/01/08 01:02:42;;;;;;;61.85;33.18;;;;;;;-0.79;77.86;97234.30;1792521;79;26550;-73
2023/01/08 01:05:14;;;;;;;55.63;31.25;;;;;;;-0.80;77.97;97237.08;1785982;78;26548;-73
2023/01/08 01:07:39;;;;;;;68.50;35.48;;;;;;;-0.86;78.00;97237.68;1786281;79;27445;-72
2023/01/08 01:10:07;;;;;;;65.25;34.95;;;;;;;-0.86;78.10;97241.66;1786274;78;25474;-75
2023/01/08 01:12:34;;;;;;;52.85;30.50;;;;;;;-0.85;78.05;97239.35;1786147;78;25819;-73
2023/01/08 01:15:00;;;;;;;60.73;30.68;;;;;;;-0.92;77.98;97236.42;1794416;78;26466;-73
2023/01/08 01:17:27;;;;;;;65.25;31.23;;;;;;;-0.94;78.08;97233.56;1793868;79;25713;-73
2023/01/08 01:19:54;;;;;;;67.87;31.82;;;;;;;-0.93;78.23;97231.27;1805388;77;28229;-72
2023/01/08 01:22:20;;;;;;;71.50;33.67;;;;;;;-0.92;78.38;97232.94;1784275;79;25773;-71
2023/01/08 01:24:47;;;;;;;76.62;35.92;;;;;;;-0.93;78.53;97225.48;1807255;79;25733;-72
2023/01/08 01:27:13;;;;;;;70.22;35.78;;;;;;;-0.91;78.62;97218.23;1784277;80;25710;-72
2023/01/08 01:29:40;;;;;;;72.20;37.25;;;;;;;-0.89;78.63;97228.20;1784498;80;25842;-73
2023/01/08 01:32:07;;;;;;;74.85;35.55;;;;;;;-0.87;78.68;97214.80;1793315;79;27369;-73
2023/01/08 01:34:34;;;;;;;66.30;31.60;;;;;;;-0.87;78.64;97218.29;1796978;79;25721;-72
2023/01/08 01:37:01;;;;;;;67.27;33.65;;;;;;;-0.86;78.65;97216.48;1784275;79;25733;-72
2023/01/08 01:39:28;;;;;;;74.40;36.55;;;;;;;-0.87;78.61;97213.48;1784454;79;25687;-73
2023/01/08 01:41:54;;;;;;;77.78;37.88;;;;;;;-0.87;78.60;97208.18;1787547;79;25718;-72
2023/01/08 01:44:44;;;;;;;67.75;34.25;;;;;;;-0.86;78.59;97206.72;1803187;79;28101;-73
2023/01/08 01:47:31;;;;;;;68.65;34.80;;;;;;;-0.86;78.58;97204.06;1810284;79;25668;-73
2023/01/08 01:50:23;;;;;;;71.50;35.50;;;;;;;-0.86;78.53;97203.23;1748842;82;25788;-72
2023/01/08 01:53:01;;;;;;;66.77;35.50;;;;;;;-0.87;78.41;97204.20;1748098;81;25553;-73
2023/01/08 01:55:28;;;;;;;56.42;29.18;;;;;;;-0.91;78.33;97199.67;1740742;82;25729;-73
2023/01/08 01:58:09;;;;;;;53.75;27.90;;;;;;;-0.91;78.31;97197.52;1743495;82;27405;-73
2023/01/08 02:00:36;;;;;;;53.95;27.73;;;;;;;-0.92;78.32;97196.67;1742324;82;25741;-73
2023/01/08 02:03:05;;;;;;;53.98;27.58;;;;;;;-0.91;78.27;97197.52;1743448;82;25806;-73
2023/01/08 02:05:54;;;;;;;48.85;26.57;;;;;;;-0.91;78.16;97189.56;1743352;82;26574;-72
2023/01/08 02:08:29;;;;;;;42.85;22.05;;;;;;;-0.94;78.11;97192.50;1671668;85;25743;-73
2023/01/08 02:11:13;;;;;;;49.73;24.82;;;;;;;-0.96;78.13;97187.34;1619135;88;28227;-73
2023/01/08 02:13:45;;;;;;;53.33;28.27;;;;;;;-0.98;78.14;97183.19;1564895;91;26063;-72
2023/01/08 02:16:16;;;;;;;49.65;28.90;;;;;;;-1.01;78.09;97175.52;1565229;91;25950;-72
2023/01/08 02:18:53;;;;;;;55.65;31.80;;;;;;;-1.05;78.13;97172.81;1533564;93;25848;-73
2023/01/08 02:21:48;;;;;;;62.65;30.70;;;;;;;-1.06;78.20;97171.14;1481522;96;25934;-72
2023/01/08 02:24:28;;;;;;;49.80;26.80;;;;;;;-1.06;78.22;97172.46;1491312;96;28243;-72
2023/01/08 02:26:58;;;;;;;51.15;27.73;;;;;;;-1.13;78.11;97159.81;1474213;96;25966;-72
2023/01/08 02:29:27;;;;;;;53.02;28.65;;;;;;;-1.15;78.19;97153.82;1480477;96;26016;-74
2023/01/08 02:31:54;;;;;;;50.88;28.25;;;;;;;-1.18;78.18;97154.09;1480537;96;25894;-72
2023/01/08 02:34:21;;;;;;;58.98;30.60;;;;;;;-1.17;78.24;97145.17;1480605;96;25616;-73
2023/01/08 02:36:54;;;;;;;53.58;29.63;;;;;;;-1.18;78.18;97143.50;1480474;96;28318;-75
2023/01/08 02:39:47;;;;;;;57.93;31.95;;;;;;;-1.17;78.16;97141.20;1480655;95;25873;-72
2023/01/08 02:42:40;;;;;;;50.03;28.20;;;;;;;-1.18;78.05;97138.20;1477814;96;26017;-73
2023/01/08 02:45:35;;;;;;;52.05;28.02;;;;;;;-1.19;78.07;97141.00;1466378;96;25799;-73
2023/01/08 02:48:16;;;;;;;51.40;26.95;;;;;;;-1.19;78.07;97133.05;1434968;98;27063;-72
2023/01/08 02:51:15;;;;;;;46.70;24.70;;;;;;;-1.22;78.01;97134.20;1435558;97;28314;-73
2023/01/08 02:53:46;;;;;;;43.23;24.15;;;;;;;-1.24;78.06;97128.21;1435605;98;25915;-73
2023/01/08 02:56:21;;;;;;;40.47;21.70;;;;;;;-1.27;78.16;97132.95;1433196;98;25943;-73
2023/01/08 02:58:51;;;;;;;41.00;22.95;;;;;;;-1.28;78.25;97129.47;1420384;98;25900;-73
2023/01/08 03:01:19;;;;;;;35.78;19.62;;;;;;;-1.27;78.28;97132.47;1429743;98;25408;-74
2023/01/08 03:03:53;;;;;;;32.45;18.15;;;;;;;-1.31;78.32;97127.09;1436979;99;27633;-74
2023/01/08 03:06:21;;;;;;;32.70;19.37;;;;;;;-1.33;78.44;97125.59;1429104;100;25965;-73
2023/01/08 03:08:51;;;;;;;33.80;18.70;;;;;;;-1.32;78.52;97125.92;1441658;99;25847;-73
2023/01/08 03:11:21;;;;;;;35.55;20.05;;;;;;;-1.32;78.49;97125.43;1504307;94;25702;-73
2023/01/08 03:14:04;;;;;;;34.70;20.40;;;;;;;-1.31;78.51;97127.09;1543200;92;25954;-73
2023/01/08 03:16:42;;;;;;;37.93;21.48;;;;;;;-1.28;78.46;97122.84;1550655;89;27559;-76
2023/01/08 03:19:22;;;;;;;38.23;21.73;;;;;;;-1.28;78.41;97116.22;1499290;95;25887;-72
2023/01/08 03:21:51;;;;;;;42.90;21.42;;;;;;;-1.27;78.36;97121.87;1491306;96;25953;-73
2023/01/08 03:24:25;;;;;;;41.35;22.32;;;;;;;-1.26;78.35;97123.55;1520659;93;25990;-73
2023/01/08 03:26:56;;;;;;;40.58;21.68;;;;;;;-1.27;78.28;97121.87;1536979;93;25876;-73
2023/01/08 03:29:24;;;;;;;40.98;22.85;;;;;;;-1.28;78.21;97124.17;1536665;93;27464;-75
2023/01/08 03:31:56;;;;;;;40.30;23.10;;;;;;;-1.28;78.20;97126.82;1536771;93;25887;-72
2023/01/08 03:34:29;;;;;;;36.85;22.45;;;;;;;-1.29;78.11;97128.28;1536764;91;25982;-73
2023/01/08 03:36:59;;;;;;;42.10;22.25;;;;;;;-1.34;78.07;97122.11;1507332;93;25776;-73
2023/01/08 03:39:30;;;;;;;38.45;21.40;;;;;;;-1.35;78.13;97116.47;1508153;93;26185;-73
2023/01/08 03:42:00;;;;;;;39.13;21.68;;;;;;;-1.35;78.18;97112.50;1507169;93;27444;-73
2023/01/08 03:44:27;;;;;;;42.48;22.50;;;;;;;-1.36;78.20;97109.50;1507188;93;26585;-73
2023/01/08 03:46:56;;;;;;;38.23;21.55;;;;;;;-1.38;78.31;97112.78;1507051;93;25836;-73
2023/01/08 03:49:26;;;;;;;35.43;21.02;;;;;;;-1.37;78.44;97110.48;1507188;93;26323;-73
2023/01/08 03:51:52;;;;;;;32.88;19.57;;;;;;;-1.36;78.48;97113.97;1507093;93;25853;-73
2023/01/08 03:54:24;;;;;;;31.57;19.85;;;;;;;-1.34;78.53;97114.17;1507359;93;28283;-72
2023/01/08 03:56:50;;;;;;;33.30;19.70;;;;;;;-1.34;78.48;97114.17;1562574;88;25904;-75
2023/01/08 03:59:17;;;;;;;30.25;17.77;;;;;;;-1.34;78.40;97098.28;1633907;87;25823;-73
2023/01/08 04:01:44;;;;;;;29.67;16.32;;;;;;;-1.36;78.33;97078.22;1630344;87;26306;-73
2023/01/08 04:04:11;;;;;;;30.17;16.40;;;;;;;-1.36;78.33;97092.78;1621391;85;25986;-73
2023/01/08 04:06:38;;;;;;;29.25;17.40;;;;;;;-1.39;78.42;97092.58;1688449;83;27555;-73
2023/01/08 04:09:05;;;;;;;24.18;15.10;;;;;;;-1.38;78.50;97099.55;1688813;83;25733;-74
2023/01/08 04:11:32;;;;;;;28.07;15.78;;;;;;;-1.38;78.61;97094.25;1688797;84;25761;-73
2023/01/08 04:13:59;;;;;;;26.23;14.68;;;;;;;-1.38;78.70;97102.19;1688653;83;26454;-73
2023/01/08 04:16:25;;;;;;;27.27;15.15;;;;;;;-1.36;78.75;97096.27;1689025;84;25811;-74
2023/01/08 04:18:52;;;;;;;25.50;16.00;;;;;;;-1.35;78.76;97093.13;1704861;83;27487;-75
2023/01/08 04:21:19;;;;;;;28.30;17.80;;;;;;;-1.35;78.73;97093.97;1710289;83;25481;-76
2023/01/08 04:23:46;;;;;;;25.10;16.67;;;;;;;-1.35;78.67;97093.97;1710191;83;25843;-73
2023/01/08 04:26:12;;;;;;;30.55;17.67;;;;;;;-1.34;78.62;97092.98;1710152;83;25932;-76
2023/01/08 04:28:39;;;;;;;29.48;16.87;;;;;;;-1.34;78.60;97090.34;1710310;83;25722;-73
2023/01/08 04:31:08;;;;;;;28.00;17.92;;;;;;;-1.33;78.67;97092.02;1746276;78;27451;-74
2023/01/08 04:33:35;;;;;;;30.45;19.48;;;;;;;-1.31;78.62;97082.58;1780664;78;25779;-73
2023/01/08 04:36:04;;;;;;;31.87;17.98;;;;;;;-1.32;78.58;97087.03;1814565;77;25724;-72
2023/01/08 04:38:31;;;;;;;29.30;17.75;;;;;;;-1.31;78.53;97087.38;1799497;78;26487;-72
2023/01/08 04:41:00;;;;;;;27.98;15.03;;;;;;;-1.32;78.54;97090.17;1790332;78;25643;-76
2023/01/08 04:43:28;;;;;;;26.90;15.85;;;;;;;-1.33;78.57;97084.06;1704907;82;27329;-72
2023/01/08 04:45:59;;;;;;;26.75;15.58;;;;;;;-1.34;78.54;97085.05;1672552;85;25700;-75
2023/01/08 04:48:27;;;;;;;27.05;16.07;;;;;;;-1.34;78.57;97086.38;1658000;85;25800;-73
2023/01/08 04:50:54;;;;;;;26.97;16.90;;;;;;;-1.34;78.60;97085.05;1658129;85;26832;-73
2023/01/08 04:53:20;;;;;;;27.13;16.20;;;;;;;-1.34;78.59;97085.05;1658091;85;25916;-73
2023/01/08 04:55:47;;;;;;;23.52;15.08;;;;;;;-1.36;78.66;97083.03;1658156;85;27440;-73
2023/01/08 04:58:13;;;;;;;26.27;15.55;;;;;;;-1.36;78.75;97080.38;1657982;85;25819;-73
2023/01/08 05:00:40;;;;;;;29.37;15.48;;;;;;;-1.39;78.85;97079.83;1658211;85;26347;-73
2023/01/08 05:03:07;;;;;;;28.57;17.65;;;;;;;-1.40;78.85;97080.31;1658026;85;25696;-73
2023/01/08 05:05:34;;;;;;;32.03;19.10;;;;;;;-1.41;78.83;97083.94;1657674;85;25813;-73
2023/01/08 05:08:01;;;;;;;31.10;19.17;;;;;;;-1.41;78.80;97079.97;1657991;85;27657;-73
2023/01/08 05:10:28;;;;;;;34.67;21.45;;;;;;;-1.43;78.80;97079.77;1658008;85;25725;-73
2023/01/08 05:13:00;;;;;;;32.60;19.37;;;;;;;-1.44;78.76;97081.58;1658103;85;25806;-73
2023/01/08 05:15:27;;;;;;;34.43;19.80;;;;;;;-1.43;78.81;97073.98;1651797;86;25860;-73
2023/01/08 05:18:05;;;;;;;39.55;21.35;;;;;;;-1.45;78.82;97078.61;1651834;86;25306;-73
2023/01/08 05:20:33;;;;;;;36.70;21.20;;;;;;;-1.46;78.86;97080.42;1651675;86;27621;-74
2023/01/08 05:23:00;;;;;;;33.18;19.37;;;;;;;-1.46;78.80;97082.23;1651830;86;25241;-73
2023/01/08 05:25:27;;;;;;;36.88;20.25;;;;;;;-1.45;78.82;97082.58;1651665;86;26551;-73
2023/01/08 05:27:53;;;;;;;34.18;20.05;;;;;;;-1.46;78.78;97077.77;1651901;86;26442;-72
2023/01/08 05:30:20;;;;;;;38.80;20.08;;;;;;;-1.44;78.79;97076.28;1651704;86;25556;-73
2023/01/08 05:32:46;;;;;;;39.13;21.23;;;;;;;-1.44;78.73;97080.25;1651903;86;27391;-73
2023/01/08 05:35:13;;;;;;;31.50;19.05;;;;;;;-1.47;78.72;97077.91;1651602;86;25856;-73
2023/01/08 05:37:40;;;;;;;30.60;18.57;;;;;;;-1.50;78.75;97072.91;1651862;86;25813;-73
2023/01/08 05:40:08;;;;;;;32.85;19.85;;;;;;;-1.50;78.83;97071.58;1651858;86;26285;-73
2023/01/08 05:42:35;;;;;;;39.55;20.52;;;;;;;-1.51;78.84;97068.09;1634484;86;25849;-74
2023/01/08 05:45:05;;;;;;;51.10;26.40;;;;;;;-1.55;78.77;97059.25;1650600;86;27504;-73
2023/01/08 05:47:33;;;;;;;58.38;28.38;;;;;;;-1.58;78.76;97061.73;1700134;83;25821;-73
2023/01/08 05:49:59;;;;;;;57.48;27.58;;;;;;;-1.64;78.81;97058.80;1694978;83;25870;-73
2023/01/08 05:52:26;;;;;;;57.45;29.18;;;;;;;-1.68;78.88;97058.25;1726463;82;26537;-73
2023/01/08 05:54:53;;;;;;;59.98;30.48;;;;;;;-1.68;78.97;97052.12;1744404;81;25514;-73
2023/01/08 05:57:19;;;;;;;56.75;28.30;;;;;;;-1.69;78.99;97045.98;1726777;82;27540;-73
2023/01/08 05:59:46;;;;;;;56.48;30.12;;;;;;;-1.67;79.02;97050.66;1726535;82;25497;-73
2023/01/08 06:02:13;;;;;;;56.10;27.60;;;;;;;-1.65;79.03;97054.48;1726430;83;25277;-72
2023/01/08 06:04:39;;;;;;;44.58;22.50;;;;;;;-1.65;78.98;97049.19;1735347;81;25921;-75
2023/01/08 06:07:06;;;;;;;45.23;23.60;;;;;;;-1.66;79.00;97042.23;1736845;81;25760;-76
2023/01/08 06:09:32;;;;;;;44.33;24.47;;;;;;;-1.66;79.03;97041.73;1753614;81;27355;-73
2023/01/08 06:11:59;;;;;;;47.38;24.00;;;;;;;-1.66;79.03;97040.91;1762632;81;25861;-75
2023/01/08 06:14:26;;;;;;;44.75;24.43;;;;;;;-1.69;79.07;97045.19;1737005;81;25816;-73
2023/01/08 06:16:52;;;;;;;45.12;23.67;;;;;;;-1.70;79.13;97043.52;1758385;81;25689;-76
2023/01/08 06:19:19;;;;;;;43.00;24.12;;;;;;;-1.72;79.23;97035.72;1740813;80;25464;-73
2023/01/08 06:21:46;;;;;;;40.30;22.22;;;;;;;-1.75;79.29;97031.19;1795437;78;27381;-73
2023/01/08 06:24:12;;;;;;;38.60;21.87;;;;;;;-1.75;79.44;97033.84;1780379;78;25860;-73
2023/01/08 06:26:39;;;;;;;38.73;21.73;;;;;;;-1.74;79.47;97029.73;1780201;78;26389;-73
2023/01/08 06:29:06;;;;;;;40.20;23.73;;;;;;;-1.70;79.51;97030.28;1780112;77;25674;-73
2023/01/08 06:31:32;;;;;;;53.13;28.02;;;;;;;-1.67;79.50;97022.03;1804878;78;25756;-75
2023/01/08 06:33:59;;;;;;;50.38;27.22;;;;;;;-1.65;79.40;97014.79;1829575;78;28132;-73
2023/01/08 06:36:25;;;;;;;53.75;30.32;;;;;;;-1.63;79.36;97022.94;1829454;77;25766;-73
2023/01/08 06:38:52;;;;;;;49.98;29.60;;;;;;;-1.61;79.38;97024.12;1795938;78;25664;-72
2023/01/08 06:41:19;;;;;;;58.33;30.97;;;;;;;-1.59;79.42;97020.84;1777176;78;26622;-73
2023/01/08 06:43:45;;;;;;;64.95;32.20;;;;;;;-1.56;79.33;97025.82;1803207;77;25654;-72
2023/01/08 06:46:13;;;;;;;61.80;32.73;;;;;;;-1.57;79.21;97024.19;1788840;78;27424;-73
2023/01/08 06:48:40;;;;;;;57.10;30.08;;;;;;;-1.60;79.11;97019.17;1805081;77;25752;-73
2023/01/08 06:51:06;;;;;;;55.60;29.80;;;;;;;-1.61;79.07;97029.41;1775409;78;25720;-73
2023/01/08 06:53:33;;;;;;;54.38;31.00;;;;;;;-1.60;79.11;97025.78;1775327;78;25706;-72
2023/01/08 06:56:02;;;;;;;49.20;27.48;;;;;;;-1.58;79.12;97030.45;1775309;78;25580;-73
2023/01/08 06:58:29;;;;;;;51.15;27.93;;;;;;;-1.57;79.10;97030.28;1816541;78;27552;-73
2023/01/08 07:00:57;;;;;;;41.05;23.73;;;;;;;-1.58;79.12;97029.13;1798165;78;25274;-74
2023/01/08 07:03:24;;;;;;;39.60;23.30;;;;;;;-1.61;79.16;97029.41;1780259;77;25439;-73
2023/01/08 07:05:50;;;;;;;37.73;22.40;;;;;;;-1.58;79.26;97035.75;1787260;77;25872;-73
2023/01/08 07:08:18;;;;;;;34.63;22.13;;;;;;;-1.55;79.28;97030.97;1820741;77;25673;-74
2023/01/08 07:10:45;;;;;;;40.40;23.62;;;;;;;-1.55;79.31;97027.00;1833158;77;27609;-73
2023/01/08 07:13:12;;;;;;;37.98;22.75;;;;;;;-1.55;79.34;97015.58;1802620;77;25716;-76
2023/01/08 07:15:42;;;;;;;37.98;24.30;;;;;;;-1.55;79.38;97016.91;1819525;77;25725;-73
2023/01/08 07:18:11;;;;;;;44.58;24.80;;;;;;;-1.54;79.44;97019.89;1786388;78;25713;-73
2023/01/08 07:20:38;;;;;;;55.95;30.90;;;;;;;-1.54;79.55;97019.89;1786424;78;25621;-72
2023/01/08 07:23:09;;;;;;;61.92;34.48;;;;;;;-1.54;79.63;97020.73;1810892;77;27526;-74
2023/01/08 07:25:35;;;;;;;81.28;42.67;;;;;;;-1.52;79.66;97016.62;1825932;77;25736;-72
2023/01/08 07:28:02;;;;;;;74.30;40.85;;;;;;;-1.50;79.69;97018.63;1807922;77;25756;-73
2023/01/08 07:30:29;;;;;;;79.97;42.48;;;;;;;-1.47;79.74;97018.35;1797278;77;25670;-76
2023/01/08 07:33:00;;;;;;;107.22;55.45;;;;;;;-1.46;79.79;97016.05;1786546;78;25731;-72
2023/01/08 07:35:27;;;;;;;86.22;47.27;;;;;;;-1.43;79.84;97014.41;1786547;77;27415;-75
2023/01/08 07:37:54;;;;;;;80.32;46.53;;;;;;;-1.41;79.87;97015.59;1786248;78;26055;-74
2023/01/08 07:40:21;;;;;;;90.40;46.65;;;;;;;-1.38;79.93;97017.95;1815781;77;25716;-74
2023/01/08 07:42:47;;;;;;;122.13;58.08;;;;;;;-1.37;79.97;97019.13;1809850;77;25688;-72
2023/01/08 07:45:14;;;;;;;125.97;62.43;;;;;;;-1.32;80.08;97022.64;1817103;77;26081;-73
2023/01/08 07:47:41;;;;;;;120.22;59.23;;;;;;;-1.29;80.20;97016.58;1787513;78;27854;-76
2023/01/08 07:50:08;;;;;;;105.32;55.78;;;;;;;-1.24;80.28;97009.53;1819875;77;25804;-75
2023/01/08 07:52:35;;;;;;;103.67;57.85;;;;;;;-1.21;80.38;97011.37;1786267;78;25738;-74
2023/01/08 07:55:01;;;;;;;109.45;60.23;;;;;;;-1.17;80.50;97006.13;1786399;78;25744;-73
2023/01/08 07:57:29;;;;;;;100.45;57.80;;;;;;;-1.10;80.54;97005.06;1786288;78;25679;-76
2023/01/08 07:59:55;;;;;;;91.92;54.73;;;;;;;-1.06;80.58;97002.92;1786421;78;27546;-73
2023/01/08 08:02:22;;;;;;;86.97;50.58;;;;;;;-1.01;80.65;97003.33;1786240;78;25729;-73
2023/01/08 08:04:48;;;;;;;71.05;43.85;;;;;;;-0.96;80.69;96989.95;1814588;78;25892;-73
2023/01/08 08:07:15;;;;;;;76.25;45.15;;;;;;;-0.90;80.81;96983.23;1789872;78;25802;-73
2023/01/08 08:09:42;;;;;;;69.42;43.00;;;;;;;-0.84;80.86;96975.99;1776761;78;25754;-73
2023/01/08 08:12:08;;;;;;;73.55;44.58;;;;;;;-0.77;80.91;96971.77;1774767;77;27325;-74
2023/01/08 08:14:35;;;;;;;72.20;45.63;;;;;;;-0.68;80.97;96967.37;1804716;78;25639;-73
2023/01/08 08:17:02;;;;;;;76.50;45.85;;;;;;;-0.62;81.04;96964.95;1784375;78;25619;-73
2023/01/08 08:19:28;;;;;;;81.50;46.58;;;;;;;-0.57;81.08;96960.02;1774695;78;25742;-73
2023/01/08 08:21:55;;;;;;;72.20;44.58;;;;;;;-0.47;81.20;96947.98;1774391;78;25725;-73
2023/01/08 08:24:21;;;;;;;75.80;45.28;;;;;;;-0.40;81.33;96948.56;1774772;78;27572;-73
2023/01/08 08:26:48;;;;;;;71.97;42.75;;;;;;;-0.30;81.36;96948.95;1812393;78;25881;-75
2023/01/08 08:29:15;;;;;;;60.98;38.35;;;;;;;-0.19;81.41;96952.67;1776262;78;25721;-74
2023/01/08 08:31:42;;;;;;;57.65;36.13;;;;;;;-0.07;81.39;96950.10;1774756;77;25899;-75
2023/01/08 08:34:08;;;;;;;60.08;36.13;;;;;;;0.03;81.43;96946.01;1774754;77;25635;-73
2023/01/08 08:36:35;;;;;;;55.83;34.78;;;;;;;0.15;81.52;96946.08;1801831;77;27519;-75
2023/01/08 08:39:03;;;;;;;54.03;33.90;;;;;;;0.28;81.49;96949.13;1791748;78;25735;-74
2023/01/08 08:41:30;;;;;;;59.65;33.60;;;;;;;0.40;81.48;96945.70;1814316;78;25781;-74
2023/01/08 08:43:56;;;;;;;52.13;32.28;;;;;;;0.52;81.54;96939.11;1816418;77;25674;-74
2023/01/08 08:46:24;;;;;;;50.75;29.30;;;;;;;0.66;81.58;96930.05;1785076;77;25713;-75
2023/01/08 08:48:50;;;;;;;50.63;30.00;;;;;;;0.81;81.68;96926.77;1799075;77;27422;-74
2023/01/08 08:51:17;;;;;;;47.88;28.38;;;;;;;0.95;81.67;96917.67;1789985;78;25690;-74
2023/01/08 08:53:44;;;;;;;44.13;29.40;;;;;;;1.10;81.66;96912.52;1774998;78;26291;-73
2023/01/08 08:56:10;;;;;;;43.17;28.27;;;;;;;1.22;81.62;96916.52;1815541;78;26560;-73
2023/01/08 08:58:37;;;;;;;43.15;27.48;;;;;;;1.33;81.56;96908.22;1832175;78;25440;-73
2023/01/08 09:01:04;;;;;;;40.83;26.30;;;;;;;1.47;81.67;96905.39;1823685;78;27444;-75
2023/01/08 09:03:31;;;;;;;38.08;26.73;;;;;;;1.67;81.73;96897.42;1819765;78;25206;-73
2023/01/08 09:05:57;;;;;;;38.90;25.15;;;;;;;1.87;81.71;96888.56;1767721;78;25782;-73
2023/01/08 09:08:24;;;;;;;33.48;21.40;;;;;;;2.15;81.80;96888.49;1764255;78;25738;-74
2023/01/08 09:10:51;;;;;;;41.25;23.52;;;;;;;2.47;81.86;96892.02;1772686;78;25782;-74
2023/01/08 09:13:17;;;;;;;37.25;24.35;;;;;;;2.81;81.74;96878.35;1795386;78;27351;-72
2023/01/08 09:15:44;;;;;;;34.63;23.27;;;;;;;3.07;81.43;96876.19;1767285;78;25723;-73
2023/01/08 09:18:11;;;;;;;34.25;22.30;;;;;;;3.35;81.37;96870.32;1800517;78;25668;-73
2023/01/08 09:20:37;;;;;;;36.08;23.30;;;;;;;3.58;81.22;96863.11;1764198;78;25774;-72
2023/01/08 09:23:05;;;;;;;34.53;23.45;;;;;;;3.80;81.01;96866.23;1780077;78;25405;-73
2023/01/08 09:25:32;;;;;;;33.78;21.77;;;;;;;4.02;80.79;96855.66;1787283;78;27500;-72
2023/01/08 09:28:05;;;;;;;28.83;20.00;;;;;;;4.19;80.43;96850.46;1764056;78;25786;-73
2023/01/08 09:30:33;;;;;;;29.00;20.30;;;;;;;4.40;80.44;96855.88;1764400;78;25679;-74
2023/01/08 09:33:02;;;;;;;27.77;19.42;;;;;;;4.67;80.24;96841.00;1764352;78;25756;-73
2023/01/08 09:35:29;;;;;;;26.10;18.15;;;;;;;4.92;80.17;96834.80;1764128;78;26310;-74
2023/01/08 09:37:56;;;;;;;23.32;15.05;;;;;;;5.19;79.89;96830.03;1804493;78;27392;-73
2023/01/08 09:40:40;;;;;;;14.25;10.93;;;;;;;5.46;79.66;96822.22;1764235;78;25657;-73
2023/01/08 09:43:11;;;;;;;14.03;9.08;;;;;;;5.71;79.43;96827.46;1754964;80;25752;-73
2023/01/08 09:45:40;;;;;;;11.53;8.40;;;;;;;6.00;79.27;96818.43;1761844;80;25834;-73
2023/01/08 09:48:12;;;;;;;11.60;8.40;;;;;;;6.23;78.71;96819.48;1762006;80;26017;-73
2023/01/08 09:50:39;;;;;;;11.60;8.33;;;;;;;6.34;78.27;96808.20;1634072;85;27623;-73
2023/01/08 09:53:13;;;;;;;11.73;8.35;;;;;;;6.54;78.38;96806.42;1631895;85;25831;-74
2023/01/08 09:55:40;;;;;;;13.10;8.68;;;;;;;6.79;78.21;96804.03;1604610;88;25827;-73
2023/01/08 09:58:15;;;;;;;12.40;7.50;;;;;;;6.91;77.49;96804.26;1603969;88;25743;-73
2023/01/08 10:00:42;;;;;;;10.50;6.92;;;;;;;7.03;77.15;96799.95;1520892;94;25523;-74
2023/01/08 10:03:11;;;;;;;9.15;6.03;;;;;;;7.12;76.59;96801.44;1520757;93;27570;-73
2023/01/08 10:05:40;;;;;;;11.50;6.85;;;;;;;7.15;76.21;96799.15;1520806;94;26027;-74
2023/01/08 10:08:13;;;;;;;12.53;8.70;;;;;;;7.18;76.08;96795.23;1520625;94;25899;-72
2023/01/08 10:10:43;;;;;;;16.12;9.90;;;;;;;7.25;75.94;96788.00;1518534;94;25840;-74
2023/01/08 10:13:12;;;;;;;15.05;9.18;;;;;;;7.41;75.99;96786.27;1516114;94;25836;-73
2023/01/08 10:15:40;;;;;;;10.93;6.97;;;;;;;7.52;75.48;96778.93;1520817;93;27400;-72
2023/01/08 10:18:13;;;;;;;10.95;6.85;;;;;;;7.57;75.14;96772.43;1520720;94;26485;-72
2023/01/08 10:20:40;;;;;;;9.00;6.17;;;;;;;7.62;74.94;96772.30;1520839;93;25868;-72
2023/01/08 10:25:31;;;;;;;6.10;4.50;;;;;;;8.13;74.35;96757.05;102769;1283;636465;-74
2023/01/08 10:28:02;;;;;;;5.50;3.80;;;;;;;8.28;73.90;96750.84;104162;1271;95807;-71
2023/01/08 10:30:33;;;;;;;5.30;3.70;;;;;;;8.48;73.07;96748.25;104092;1266;96002;-72
2023/01/08 10:33:32;;;;;;;4.70;3.40;;;;;;;8.65;72.89;96748.88;104183;1271;99968;-73
2023/01/08 10:36:06;;;;;;;3.60;3.20;;;;;;;8.83;72.52;96741.06;104136;1273;101989;-74
2023/01/08 10:38:38;;;;;;;4.00;3.50;;;;;;;8.89;72.02;96735.61;104060;1286;156139;-73
2023/01/08 10:41:11;;;;;;;7.00;4.50;;;;;;;8.93;71.82;96741.41;104200;1269;95871;-74
2023/01/08 10:43:52;;;;;;;4.60;3.60;;;;;;;9.01;71.50;96739.50;103962;1274;96799;-72
2023/01/08 10:46:27;;;;;;;5.30;4.10;;;;;;;9.17;71.18;96734.62;104378;1282;99953;-73
2023/01/08 10:48:59;;;;;;;5.20;4.10;;;;;;;9.36;70.89;96729.87;104446;1269;101773;-71
2023/01/08 10:51:29;;;;;;;5.60;3.90;;;;;;;9.53;70.26;96726.65;104179;1269;100368;-73
2023/01/08 10:54:23;;;;;;;5.30;3.90;;;;;;;9.69;69.83;96723.23;104320;1266;95879;-72
2023/01/08 10:56:51;;;;;;;5.00;4.20;;;;;;;9.92;69.61;96720.63;104162;1270;95960;-74
2023/01/08 10:59:21;;;;;;;4.90;4.10;;;;;;;10.09;69.33;96717.84;104296;1269;101612;-72
2023/01/08 11:01:52;;;;;;;4.60;3.70;;;;;;;10.28;68.95;96719.63;105164;1259;101685;-72
2023/01/08 11:04:31;;;;;;;5.80;4.10;;;;;;;10.40;68.26;96716.78;105004;1257;100416;-72
2023/01/08 11:07:07;;;;;;;4.10;3.70;;;;;;;10.41;67.88;96721.13;104833;1259;95906;-72
2023/01/08 11:09:46;;;;;;;5.90;4.00;;;;;;;10.35;67.44;96710.13;105103;1257;96924;-72
2023/01/08 11:12:35;;;;;;;5.40;4.40;;;;;;;10.28;67.23;96709.42;105360;1257;101392;-72
2023/01/08 11:15:07;;;;;;;6.20;4.50;;;;;;;10.20;66.81;96702.83;105106;1254;101802;-72
2023/01/08 11:17:35;;;;;;;4.80;4.20;;;;;;;10.11;66.36;96696.23;105188;1259;100432;-72
2023/01/08 11:20:09;;;;;;;6.60;4.80;;;;;;;9.96;66.35;96689.91;105115;1258;97237;-72
2023/01/08 11:22:38;;;;;;;5.20;4.10;;;;;;;9.82;66.37;96690.14;105041;1253;97170;-73
2023/01/08 11:25:14;;;;;;;6.80;4.60;;;;;;;9.68;65.99;96684.19;104975;1259;101336;-72
2023/01/08 11:27:45;;;;;;;5.60;4.70;;;;;;;9.52;66.12;96683.78;104945;1259;102206;-73
2023/01/08 11:30:21;;;;;;;5.40;4.50;;;;;;;9.45;66.36;96679.61;105057;1259;100476;-73
2023/01/08 11:32:53;;;;;;;6.20;5.10;;;;;;;9.42;66.25;96679.64;105195;1259;95905;-72